createdAt,value
2022-12-24T00:01:39.311Z,12.54
2022-12-24T00:04:06.231Z,12.52
2022-12-24T00:06:32.816Z,12.44
2022-12-24T00:08:59.287Z,12.47
2022-12-24T00:11:25.797Z,12.44
2022-12-24T00:13:52.247Z,12.42
2022-12-24T00:16:18.807Z,12.41
2022-12-24T00:18:46.598Z,12.36
2022-12-24T00:21:14.867Z,12.34
2022-12-24T00:23:41.636Z,12.34
2022-12-24T00:26:08.284Z,12.31
2022-12-24T00:28:34.850Z,12.28
2022-12-24T00:31:07.769Z,12.30
2022-12-24T00:33:34.274Z,12.26
2022-12-24T00:36:00.645Z,12.28
2022-12-24T00:38:27.116Z,12.29
2022-12-24T00:41:04.371Z,12.29
2022-12-24T00:43:31.017Z,12.27
2022-12-24T00:45:57.951Z,12.26
2022-12-24T00:48:24.696Z,12.25
2022-12-24T00:50:51.539Z,12.26
2022-12-24T00:53:18.723Z,12.27
2022-12-24T00:55:45.136Z,12.27
2022-12-24T00:58:11.536Z,12.28
2022-12-24T01:00:38.313Z,12.26
2022-12-24T01:03:04.782Z,12.25
2022-12-24T01:05:31.330Z,12.25
2022-12-24T01:07:57.794Z,12.26
2022-12-24T01:10:24.416Z,12.23
2022-12-24T01:12:50.853Z,12.22
2022-12-24T01:15:17.896Z,12.20
2022-12-24T01:17:44.303Z,12.19
2022-12-24T01:20:15.424Z,12.18
2022-12-24T01:22:42.237Z,12.17
2022-12-24T01:25:09.973Z,12.16
2022-12-24T01:27:36.476Z,12.14
2022-12-24T01:30:04.103Z,12.13
2022-12-24T01:32:30.492Z,12.13
2022-12-24T01:34:56.973Z,12.12
2022-12-24T01:37:23.827Z,12.14
2022-12-24T01:39:50.272Z,12.16
2022-12-24T01:42:38.469Z,12.15
2022-12-24T01:45:38.634Z,12.13
2022-12-24T01:48:08.890Z,12.11
2022-12-24T01:50:35.351Z,12.13
2022-12-24T01:53:03.027Z,12.16
2022-12-24T01:55:29.435Z,12.18
2022-12-24T01:57:58.543Z,12.19
2022-12-24T02:00:24.994Z,12.18
2022-12-24T02:02:53.985Z,12.20
2022-12-24T02:05:36.782Z,12.19
2022-12-24T02:08:04.708Z,12.19
2022-12-24T02:10:31.110Z,12.20
2022-12-24T02:12:59.268Z,12.20
2022-12-24T02:18:37.643Z,12.22
2022-12-24T02:21:36.321Z,12.19
2022-12-24T02:24:15.576Z,12.22
2022-12-24T02:27:14.381Z,12.25
2022-12-24T02:30:02.055Z,12.25
2022-12-24T02:32:28.378Z,12.25
2022-12-24T02:35:05.738Z,12.20
2022-12-24T02:37:37.184Z,12.23
2022-12-24T02:40:15.775Z,12.23
2022-12-24T02:42:51.207Z,12.23
2022-12-24T02:45:26.040Z,12.19
2022-12-24T02:47:54.974Z,12.15
2022-12-24T02:50:22.254Z,12.15
2022-12-24T02:52:49.423Z,12.17
2022-12-24T02:55:37.193Z,12.16
2022-12-24T02:58:34.449Z,12.19
2022-12-24T03:01:28.703Z,12.16
2022-12-24T03:04:11.412Z,12.13
2022-12-24T03:06:42.839Z,12.11
2022-12-24T03:09:33.704Z,12.13
2022-12-24T03:12:07.246Z,12.14
2022-12-24T03:14:34.889Z,12.13
2022-12-24T03:17:03.655Z,12.13
2022-12-24T03:19:31.470Z,12.14
2022-12-24T03:22:01.484Z,12.18
2022-12-24T03:24:28.141Z,12.19
2022-12-24T03:26:55.012Z,12.17
2022-12-24T03:29:21.559Z,12.19
2022-12-24T03:31:50.855Z,12.18
2022-12-24T03:34:18.880Z,12.17
2022-12-24T03:36:47.432Z,12.12
2022-12-24T03:39:13.811Z,12.14
2022-12-24T03:41:40.302Z,12.14
2022-12-24T03:44:06.726Z,12.17
2022-12-24T03:46:33.211Z,12.20
2022-12-24T03:48:59.669Z,12.22
2022-12-24T03:51:26.861Z,12.13
2022-12-24T03:53:54.265Z,12.11
2022-12-24T03:56:21.156Z,12.08
2022-12-24T03:58:47.927Z,12.07
2022-12-24T04:01:15.605Z,12.03
2022-12-24T04:03:42.229Z,12.02
2022-12-24T04:06:11.593Z,12.03
2022-12-24T04:08:38.420Z,12.03
2022-12-24T04:11:09.907Z,12.02
2022-12-24T04:13:36.967Z,12.00
2022-12-24T04:16:07.617Z,12.00
2022-12-24T04:18:34.860Z,11.97
2022-12-24T04:21:01.497Z,11.97
2022-12-24T04:23:31.215Z,11.96
2022-12-24T04:26:00.127Z,11.94
2022-12-24T04:28:26.510Z,11.91
2022-12-24T04:30:58.923Z,11.91
2022-12-24T04:33:25.560Z,11.91
2022-12-24T04:35:51.971Z,11.92
2022-12-24T04:38:18.616Z,11.92
2022-12-24T04:40:45.065Z,11.90
2022-12-24T04:43:11.491Z,11.88
2022-12-24T04:45:38.003Z,11.82
2022-12-24T04:48:04.550Z,11.84
2022-12-24T04:50:30.987Z,11.87
2022-12-24T04:52:58.661Z,11.86
2022-12-24T04:55:25.088Z,11.86
2022-12-24T04:57:53.234Z,11.81
2022-12-24T05:00:20.196Z,11.78
2022-12-24T05:02:46.840Z,11.79
2022-12-24T05:05:13.348Z,11.80
2022-12-24T05:07:39.740Z,11.80
2022-12-24T05:10:07.106Z,11.79
2022-12-24T05:12:33.540Z,11.76
2022-12-24T05:15:00.000Z,11.79
2022-12-24T05:17:26.480Z,11.83
2022-12-24T05:19:52.873Z,11.82
2022-12-24T05:22:38.037Z,11.79
2022-12-24T05:25:23.234Z,11.80
2022-12-24T05:27:51.567Z,11.80
2022-12-24T05:30:18.071Z,11.75
2022-12-24T05:32:44.629Z,11.70
2022-12-24T05:35:10.980Z,11.70
2022-12-24T05:37:37.341Z,11.71
2022-12-24T05:40:04.039Z,11.73
2022-12-24T05:42:30.510Z,11.71
2022-12-24T05:44:56.881Z,11.66
2022-12-24T05:47:23.291Z,11.64
2022-12-24T05:49:49.676Z,11.61
2022-12-24T05:52:16.079Z,11.61
2022-12-24T05:54:42.545Z,11.61
2022-12-24T05:57:08.940Z,11.63
2022-12-24T05:59:35.480Z,11.60
2022-12-24T06:02:01.982Z,11.59
2022-12-24T06:04:29.393Z,11.57
2022-12-24T06:06:56.012Z,11.55
2022-12-24T06:09:22.472Z,11.53
2022-12-24T06:11:48.861Z,11.53
2022-12-24T06:14:15.342Z,11.50
2022-12-24T06:16:41.842Z,11.48
2022-12-24T06:19:08.216Z,11.46
2022-12-24T06:21:34.667Z,11.40
2022-12-24T06:24:01.569Z,11.36
2022-12-24T06:26:28.023Z,11.33
2022-12-24T06:28:54.598Z,11.27
2022-12-24T06:31:23.295Z,11.22
2022-12-24T06:33:50.656Z,11.17
2022-12-24T06:36:20.316Z,11.11
2022-12-24T06:38:48.011Z,11.05
2022-12-24T06:41:15.852Z,11.00
2022-12-24T06:43:50.170Z,10.96
2022-12-24T06:46:17.409Z,10.93
2022-12-24T06:48:45.500Z,10.89
2022-12-24T06:51:13.464Z,10.85
2022-12-24T06:53:40.115Z,10.82
2022-12-24T06:56:11.570Z,10.80
2022-12-24T06:58:38.497Z,10.75
2022-12-24T07:01:07.001Z,10.74
2022-12-24T07:03:34.125Z,10.71
2022-12-24T07:06:00.877Z,10.68
2022-12-24T07:08:27.817Z,10.66
2022-12-24T07:10:54.759Z,10.63
2022-12-24T07:13:21.627Z,10.60
2022-12-24T07:15:57.119Z,10.59
2022-12-24T07:18:23.592Z,10.55
2022-12-24T07:20:49.977Z,10.52
2022-12-24T07:23:16.390Z,10.47
2022-12-24T07:25:43.102Z,10.44
2022-12-24T07:28:09.489Z,10.42
2022-12-24T07:30:36.094Z,10.40
2022-12-24T07:33:02.545Z,10.41
2022-12-24T07:35:28.993Z,10.39
2022-12-24T07:37:55.380Z,10.40
2022-12-24T07:40:21.836Z,10.39
2022-12-24T07:42:48.259Z,10.37
2022-12-24T07:45:14.659Z,10.38
2022-12-24T07:47:41.034Z,10.36
2022-12-24T07:50:08.278Z,10.35
2022-12-24T07:52:34.701Z,10.31
2022-12-24T07:55:01.086Z,10.27
2022-12-24T07:57:27.459Z,10.23
2022-12-24T07:59:53.877Z,10.21
2022-12-24T08:02:20.418Z,10.20
2022-12-24T08:04:46.969Z,10.20
2022-12-24T08:07:13.308Z,10.18
2022-12-24T08:09:39.842Z,10.17
2022-12-24T08:12:06.478Z,10.16
2022-12-24T08:14:32.999Z,10.15
2022-12-24T08:16:59.459Z,10.13
2022-12-24T08:19:25.968Z,10.13
2022-12-24T08:21:52.396Z,10.13
2022-12-24T08:24:18.833Z,10.13
2022-12-24T08:26:45.302Z,10.15
2022-12-24T08:29:11.958Z,10.15
2022-12-24T08:31:38.509Z,10.17
2022-12-24T08:34:07.008Z,10.17
2022-12-24T08:36:34.401Z,10.16
2022-12-24T08:39:03.510Z,10.18
2022-12-24T08:41:31.589Z,10.20
2022-12-24T08:43:58.325Z,10.25
2022-12-24T08:46:24.870Z,10.27
2022-12-24T08:48:51.430Z,10.36
2022-12-24T08:51:19.182Z,10.42
2022-12-24T08:53:46.776Z,10.50
2022-12-24T08:56:13.564Z,10.58
2022-12-24T08:58:40.075Z,10.65
2022-12-24T09:01:14.948Z,10.72
2022-12-24T09:03:42.112Z,10.77
2022-12-24T09:06:09.004Z,10.83
2022-12-24T09:08:36.146Z,10.89
2022-12-24T09:11:10.087Z,10.97
2022-12-24T09:13:36.581Z,11.05
2022-12-24T09:16:03.784Z,11.15
2022-12-24T09:18:30.412Z,11.23
2022-12-24T09:20:59.856Z,11.34
2022-12-24T09:23:26.543Z,11.43
2022-12-24T09:25:52.964Z,11.53
2022-12-24T09:28:20.078Z,11.66
2022-12-24T09:30:55.763Z,11.78
2022-12-24T09:33:22.289Z,11.86
2022-12-24T09:35:51.442Z,11.93
2022-12-24T09:38:18.411Z,11.98
2022-12-24T09:40:44.973Z,12.04
2022-12-24T09:43:17.846Z,12.16
2022-12-24T09:46:08.482Z,12.22
2022-12-24T09:48:39.543Z,12.28
2022-12-24T09:51:20.940Z,12.37
2022-12-24T09:54:00.199Z,12.50
2022-12-24T09:56:47.855Z,12.73
2022-12-24T09:59:40.735Z,12.92
2022-12-24T10:02:18.928Z,13.04
2022-12-24T10:04:47.250Z,13.13
2022-12-24T10:07:29.466Z,13.21
2022-12-24T10:10:10.411Z,13.29
2022-12-24T10:12:50.427Z,13.36
2022-12-24T10:15:31.260Z,13.38
2022-12-24T10:18:48.907Z,13.26
2022-12-24T10:21:33.601Z,13.26
2022-12-24T10:24:50.255Z,13.23
2022-12-24T10:27:21.678Z,13.18
2022-12-24T10:29:54.289Z,13.20
2022-12-24T10:32:28.565Z,13.10
2022-12-24T10:35:02.224Z,13.21
2022-12-24T10:37:30.086Z,13.24
2022-12-24T10:39:59.069Z,13.39
2022-12-24T10:42:36.597Z,13.61
2022-12-24T10:45:06.174Z,13.76
2022-12-24T10:47:36.849Z,13.83
2022-12-24T10:50:19.270Z,13.99
2022-12-24T10:52:47.069Z,14.06
2022-12-24T10:55:19.168Z,14.14
2022-12-24T10:57:56.344Z,14.21
2022-12-24T11:00:28.466Z,14.17
2022-12-24T11:03:20.012Z,14.13
2022-12-24T11:05:46.526Z,14.08
2022-12-24T11:08:13.194Z,14.28
2022-12-24T11:10:42.858Z,14.32
2022-12-24T11:13:39.312Z,14.40
2022-12-24T11:16:31.981Z,14.39
2022-12-24T11:19:01.040Z,14.54
2022-12-24T11:21:32.092Z,14.56
2022-12-24T11:24:04.271Z,14.55
2022-12-24T11:26:31.433Z,14.44
2022-12-24T11:29:15.879Z,14.43
2022-12-24T11:31:44.852Z,14.45
2022-12-24T11:34:37.564Z,14.32
2022-12-24T11:37:24.638Z,14.31
2022-12-24T11:39:57.947Z,14.05
2022-12-24T11:42:34.692Z,13.96
2022-12-24T11:45:05.763Z,14.04
2022-12-24T11:47:40.532Z,14.10
2022-12-24T11:50:20.087Z,14.18
2022-12-24T11:52:49.761Z,14.17
2022-12-24T11:55:33.970Z,14.46
2022-12-24T11:58:16.913Z,14.79
2022-12-24T12:00:45.040Z,14.99
2022-12-24T12:03:27.781Z,15.22
2022-12-24T12:05:55.951Z,15.48
2022-12-24T12:08:23.881Z,15.92
2022-12-24T12:10:53.078Z,16.41
2022-12-24T12:13:26.955Z,16.69
2022-12-24T12:16:14.538Z,16.48
2022-12-24T12:18:46.980Z,16.22
2022-12-24T12:21:24.268Z,15.99
2022-12-24T12:23:59.876Z,15.89
2022-12-24T12:26:30.150Z,16.15
2022-12-24T12:29:09.987Z,16.42
2022-12-24T12:31:39.162Z,16.52
2022-12-24T12:34:29.567Z,16.04
2022-12-24T12:37:02.607Z,16.23
2022-12-24T12:39:31.297Z,15.87
2022-12-24T12:42:34.162Z,15.91
2022-12-24T12:45:32.106Z,15.72
2022-12-24T12:48:24.058Z,15.48
2022-12-24T12:51:01.974Z,15.13
2022-12-24T12:53:40.338Z,15.10
2022-12-24T12:56:14.144Z,15.02
2022-12-24T12:59:00.149Z,14.97
2022-12-24T13:01:48.445Z,15.10
2022-12-24T13:04:33.173Z,15.76
2022-12-24T13:07:05.233Z,16.18
2022-12-24T13:09:45.194Z,16.84
2022-12-24T13:12:17.297Z,17.48
2022-12-24T13:15:11.673Z,17.93
2022-12-24T13:17:43.811Z,18.27
2022-12-24T13:20:36.798Z,18.68
2022-12-24T13:23:13.460Z,19.10
2022-12-24T13:25:46.460Z,19.34
2022-12-24T13:28:22.129Z,19.70
2022-12-24T13:30:59.271Z,19.96
2022-12-24T13:33:37.633Z,20.22
2022-12-24T13:36:18.867Z,20.49
2022-12-24T13:38:58.455Z,20.79
2022-12-24T13:41:40.667Z,20.49
2022-12-24T13:44:12.610Z,19.75
2022-12-24T13:47:03.198Z,19.55
2022-12-24T13:49:31.924Z,19.00
2022-12-24T13:52:15.896Z,18.21
2022-12-24T13:54:47.440Z,17.75
2022-12-24T13:57:32.715Z,17.82
2022-12-24T14:00:20.509Z,16.91
2022-12-24T14:03:03.774Z,16.64
2022-12-24T14:05:30.217Z,16.17
2022-12-24T14:07:58.052Z,15.82
2022-12-24T14:10:29.237Z,15.71
2022-12-24T14:12:55.802Z,15.61
2022-12-24T14:15:45.267Z,15.44
2022-12-24T14:18:18.868Z,15.53
2022-12-24T14:20:50.799Z,15.56
2022-12-24T14:23:43.956Z,15.50
2022-12-24T14:26:18.834Z,15.54
2022-12-24T14:28:53.342Z,15.51
2022-12-24T14:31:19.854Z,15.48
2022-12-24T14:33:46.764Z,15.49
2022-12-24T14:36:18.466Z,15.35
2022-12-24T14:38:45.952Z,15.27
2022-12-24T14:41:29.550Z,15.29
2022-12-24T14:44:11.926Z,15.20
2022-12-24T14:46:45.674Z,15.15
2022-12-24T14:49:20.465Z,15.02
2022-12-24T14:52:45.902Z,14.86
2022-12-24T14:55:45.170Z,14.64
2022-12-24T14:58:26.407Z,14.54
2022-12-24T15:00:56.183Z,14.40
2022-12-24T15:03:25.073Z,14.23
2022-12-24T15:05:59.264Z,14.17
2022-12-24T15:08:51.903Z,14.06
2022-12-24T15:11:21.281Z,14.01
2022-12-24T15:13:53.333Z,14.00
2022-12-24T15:16:27.516Z,13.97
2022-12-24T15:18:58.741Z,13.93
2022-12-24T15:21:41.215Z,13.85
2022-12-24T15:24:29.374Z,13.80
2022-12-24T15:26:56.242Z,13.81
2022-12-24T15:29:29.945Z,13.81
2022-12-24T15:32:02.169Z,13.79
2022-12-24T15:34:35.189Z,13.72
2022-12-24T15:37:23.863Z,13.61
2022-12-24T15:40:15.563Z,13.50
2022-12-24T15:42:42.607Z,13.39
2022-12-24T15:45:28.170Z,13.30
2022-12-24T15:48:06.949Z,13.21
2022-12-24T15:50:36.779Z,13.09
2022-12-24T15:53:19.247Z,13.01
2022-12-24T15:56:12.320Z,12.90
2022-12-24T15:58:40.043Z,12.81
2022-12-24T16:01:09.559Z,12.72
2022-12-24T16:03:39.400Z,12.61
2022-12-24T16:06:08.326Z,12.54
2022-12-24T16:08:36.617Z,12.44
2022-12-24T16:11:05.842Z,12.35
2022-12-24T16:13:36.356Z,12.27
2022-12-24T16:16:12.703Z,12.19
2022-12-24T16:18:51.666Z,12.11
2022-12-24T16:21:25.463Z,12.04
2022-12-24T16:23:55.809Z,11.98
2022-12-24T16:26:22.942Z,11.91
2022-12-24T16:28:49.426Z,11.83
2022-12-24T16:31:47.861Z,11.75
2022-12-24T16:34:15.443Z,11.69
2022-12-24T16:36:43.264Z,11.64
2022-12-24T16:39:24.376Z,11.60
2022-12-24T16:42:14.843Z,11.56
2022-12-24T16:44:42.280Z,11.45
2022-12-24T16:47:15.499Z,11.38
2022-12-24T16:49:41.926Z,11.31
2022-12-24T16:52:25.884Z,11.23
2022-12-24T16:54:52.538Z,11.14
2022-12-24T16:57:20.819Z,11.06
2022-12-24T16:59:47.430Z,11.00
2022-12-24T17:02:16.529Z,10.95
2022-12-24T17:04:43.655Z,10.88
2022-12-24T17:07:11.739Z,10.84
2022-12-24T17:09:38.208Z,10.77
2022-12-24T17:12:05.122Z,10.73
2022-12-24T17:14:31.559Z,10.68
2022-12-24T17:16:58.100Z,10.62
2022-12-24T17:19:24.561Z,10.55
2022-12-24T17:21:50.992Z,10.49
2022-12-24T17:24:17.384Z,10.44
2022-12-24T17:26:43.864Z,10.38
2022-12-24T17:29:10.876Z,10.34
2022-12-24T17:31:39.284Z,10.27
2022-12-24T17:34:05.988Z,10.23
2022-12-24T17:36:32.544Z,10.15
2022-12-24T17:38:58.954Z,10.10
2022-12-24T17:41:25.521Z,10.05
2022-12-24T17:43:52.000Z,10.01
2022-12-24T17:46:23.873Z,9.97
2022-12-24T17:48:51.090Z,9.92
2022-12-24T17:51:22.836Z,9.89
2022-12-24T17:53:49.946Z,9.84
2022-12-24T17:56:17.611Z,9.78
2022-12-24T17:58:45.990Z,9.72
2022-12-24T18:01:30.487Z,9.69
2022-12-24T18:04:02.329Z,9.66
2022-12-24T18:06:29.127Z,9.62
2022-12-24T18:08:55.650Z,9.62
2022-12-24T18:11:32.593Z,9.61
2022-12-24T18:14:01.024Z,9.54
2022-12-24T18:16:32.124Z,9.54
2022-12-24T18:18:59.449Z,9.54
2022-12-24T18:21:29.232Z,9.54
2022-12-24T18:23:58.408Z,9.56
2022-12-24T18:26:27.772Z,9.57
2022-12-24T18:28:55.781Z,9.59
2022-12-24T18:31:23.667Z,9.60
2022-12-24T18:33:51.327Z,9.62
2022-12-24T18:36:18.732Z,9.59
2022-12-24T18:38:45.807Z,9.56
2022-12-24T18:41:15.592Z,9.55
2022-12-24T18:43:42.122Z,9.53
2022-12-24T18:46:23.860Z,9.53
2022-12-24T18:48:51.024Z,9.53
2022-12-24T18:51:19.903Z,9.51
2022-12-24T18:53:46.333Z,9.50
2022-12-24T18:56:19.211Z,9.48
2022-12-24T18:58:46.733Z,9.47
2022-12-24T19:01:20.695Z,9.47
2022-12-24T19:03:47.679Z,9.46
2022-12-24T19:06:14.153Z,9.44
2022-12-24T19:08:58.320Z,9.44
2022-12-24T19:11:26.230Z,9.38
2022-12-24T19:13:57.737Z,9.36
2022-12-24T19:16:24.213Z,9.33
2022-12-24T19:18:50.621Z,9.33
2022-12-24T19:21:17.782Z,9.33
2022-12-24T19:23:46.017Z,9.34
2022-12-24T19:26:14.340Z,9.35
2022-12-24T19:28:41.049Z,9.37
2022-12-24T19:31:10.982Z,9.40
2022-12-24T19:33:49.696Z,9.41
2022-12-24T19:36:20.259Z,9.42
2022-12-24T19:38:47.249Z,9.42
2022-12-24T19:41:15.849Z,9.42
2022-12-24T19:43:45.072Z,9.42
2022-12-24T19:46:14.613Z,9.42
2022-12-24T19:48:42.505Z,9.43
2022-12-24T19:51:12.044Z,9.43
2022-12-24T19:53:39.263Z,9.42
2022-12-24T19:56:05.975Z,9.41
2022-12-24T19:58:35.510Z,9.40
2022-12-24T20:01:15.258Z,9.41
2022-12-24T20:03:42.779Z,9.39
2022-12-24T20:06:09.254Z,9.40
2022-12-24T20:08:36.453Z,9.39
2022-12-24T20:11:10.314Z,9.39
2022-12-24T20:13:38.345Z,9.38
2022-12-24T20:16:10.093Z,9.40
2022-12-24T20:18:37.033Z,9.41
2022-12-24T20:21:06.343Z,9.42
2022-12-24T20:23:33.155Z,9.43
2022-12-24T20:26:02.011Z,9.43
2022-12-24T20:28:30.920Z,9.43
2022-12-24T20:30:57.719Z,9.43
2022-12-24T20:33:24.343Z,9.42
2022-12-24T20:35:50.940Z,9.44
2022-12-24T20:38:17.556Z,9.45
2022-12-24T20:40:46.276Z,9.44
2022-12-24T20:43:12.912Z,9.45
2022-12-24T20:45:39.575Z,9.48
2022-12-24T20:48:06.690Z,9.50
2022-12-24T20:50:33.479Z,9.50
2022-12-24T20:53:00.173Z,9.52
2022-12-24T20:55:26.578Z,9.56
2022-12-24T20:57:52.950Z,9.57
2022-12-24T21:00:20.007Z,9.57
2022-12-24T21:02:47.242Z,9.55
2022-12-24T21:05:14.166Z,9.55
2022-12-24T21:07:42.904Z,9.55
2022-12-24T21:10:10.776Z,9.57
2022-12-24T21:12:48.975Z,9.56
2022-12-24T21:15:20.617Z,9.53
2022-12-24T21:17:47.873Z,9.53
2022-12-24T21:20:15.480Z,9.54
2022-12-24T21:22:42.802Z,9.55
2022-12-24T21:25:10.656Z,9.56
2022-12-24T21:27:37.527Z,9.58
2022-12-24T21:30:07.943Z,9.58
2022-12-24T21:32:35.616Z,9.60
2022-12-24T21:35:02.174Z,9.61
2022-12-24T21:37:28.659Z,9.62
2022-12-24T21:39:55.169Z,9.63
2022-12-24T21:42:21.549Z,9.65
2022-12-24T21:44:47.941Z,9.66
2022-12-24T21:47:14.335Z,9.68
2022-12-24T21:49:59.132Z,9.69
2022-12-24T21:52:25.650Z,9.69
2022-12-24T21:54:52.046Z,9.69
2022-12-24T21:57:37.430Z,9.71
2022-12-24T22:00:22.939Z,9.70
2022-12-24T22:02:51.469Z,9.69
2022-12-24T22:05:18.878Z,9.67
2022-12-24T22:08:04.055Z,9.65
2022-12-24T22:10:49.627Z,9.60
2022-12-24T22:13:16.604Z,9.54
2022-12-24T22:15:48.866Z,9.51
2022-12-24T22:18:17.164Z,9.49
2022-12-24T22:20:44.695Z,9.46
2022-12-24T22:23:12.043Z,9.47
2022-12-24T22:25:39.017Z,9.46
2022-12-24T22:28:06.277Z,9.48
2022-12-24T22:30:37.478Z,9.48
2022-12-24T22:33:04.299Z,9.46
2022-12-24T22:35:31.082Z,9.46
2022-12-24T22:38:00.140Z,9.47
2022-12-24T22:40:27.848Z,9.44
2022-12-24T22:42:54.363Z,9.42
2022-12-24T22:45:22.611Z,9.40
2022-12-24T22:47:49.542Z,9.40
2022-12-24T22:50:16.213Z,9.39
2022-12-24T22:52:42.588Z,9.38
2022-12-24T22:55:09.216Z,9.39
2022-12-24T22:57:35.598Z,9.38
2022-12-24T23:00:02.067Z,9.39
2022-12-24T23:02:29.181Z,9.40
2022-12-24T23:04:56.355Z,9.40
2022-12-24T23:07:22.800Z,9.41
2022-12-24T23:09:49.351Z,9.45
2022-12-24T23:12:35.757Z,9.49
2022-12-24T23:15:02.323Z,9.49
2022-12-24T23:17:28.736Z,9.50
2022-12-24T23:19:55.223Z,9.51
2022-12-24T23:22:21.641Z,9.51
2022-12-24T23:24:48.023Z,9.51
2022-12-24T23:27:14.420Z,9.52
2022-12-24T23:29:40.929Z,9.54
2022-12-24T23:32:07.320Z,9.57
2022-12-24T23:34:33.849Z,9.60
2022-12-24T23:37:00.308Z,9.62
2022-12-24T23:39:26.720Z,9.63
2022-12-24T23:41:53.093Z,9.65
2022-12-24T23:44:19.460Z,9.66
2022-12-24T23:46:45.893Z,9.67
2022-12-24T23:49:14.633Z,9.70
2022-12-24T23:51:41.166Z,9.71
2022-12-24T23:54:07.690Z,9.73
2022-12-24T23:56:34.202Z,9.73
2022-12-24T23:59:02.611Z,9.77
